createdAt,value
2024-01-21T00:00:00.283Z,8.20
2024-01-21T00:03:09.008Z,7.60
2024-01-21T00:05:57.714Z,8.30
2024-01-21T00:08:46.279Z,9.20
2024-01-21T00:11:35.594Z,8.70
2024-01-21T00:14:24.155Z,9.30
2024-01-21T00:17:12.719Z,8.50
2024-01-21T00:20:01.235Z,8.80
2024-01-21T00:22:50.195Z,9.00
2024-01-21T00:25:38.755Z,10.20
2024-01-21T00:28:27.525Z,8.10
2024-01-21T00:31:16.044Z,8.30
2024-01-21T00:34:04.802Z,8.40
2024-01-21T00:36:53.487Z,9.40
2024-01-21T00:39:42.243Z,10.80
2024-01-21T00:42:30.857Z,11.30
2024-01-21T00:45:19.496Z,11.20
2024-01-21T00:48:08.264Z,10.00
2024-01-21T00:50:56.890Z,9.00
2024-01-21T00:53:47.530Z,8.20
2024-01-21T00:56:37.017Z,9.30
2024-01-21T00:59:25.970Z,7.70
2024-01-21T01:02:14.501Z,9.20
2024-01-21T01:05:03.187Z,9.10
2024-01-21T01:07:51.755Z,10.30
2024-01-21T01:10:40.247Z,10.60
2024-01-21T01:13:28.894Z,10.70
2024-01-21T01:16:17.606Z,10.60
2024-01-21T01:19:07.548Z,8.50
2024-01-21T01:21:56.402Z,7.90
2024-01-21T01:24:45.089Z,10.00
2024-01-21T01:27:33.807Z,9.60
2024-01-21T01:30:22.437Z,9.70
2024-01-21T01:33:11.294Z,8.20
2024-01-21T01:36:00.684Z,9.10
2024-01-21T01:38:49.187Z,9.40
2024-01-21T01:41:37.689Z,11.00
2024-01-21T01:44:26.233Z,9.40
2024-01-21T01:47:14.983Z,8.50
2024-01-21T01:50:03.945Z,9.80
2024-01-21T01:52:53.233Z,10.10
2024-01-21T01:55:43.265Z,9.10
2024-01-21T01:58:35.387Z,8.10
2024-01-21T02:02:59.845Z,8.90
2024-01-21T02:05:48.561Z,8.40
2024-01-21T02:08:37.173Z,8.60
2024-01-21T02:11:26.002Z,9.20
2024-01-21T02:14:14.554Z,10.60
2024-01-21T02:17:03.176Z,9.70
2024-01-21T02:19:51.741Z,10.70
2024-01-21T02:22:43.873Z,10.10
2024-01-21T02:25:32.409Z,9.00
2024-01-21T02:28:21.037Z,10.10
2024-01-21T02:31:09.675Z,9.30
2024-01-21T02:33:58.365Z,8.80
2024-01-21T02:36:49.991Z,9.20
2024-01-21T02:39:38.856Z,8.60
2024-01-21T02:42:27.481Z,8.90
2024-01-21T02:45:16.426Z,8.60
2024-01-21T02:48:06.008Z,11.00
2024-01-21T02:50:54.629Z,10.70
2024-01-21T02:53:43.144Z,10.20
2024-01-21T02:56:31.880Z,10.70
2024-01-21T02:59:20.350Z,11.00
2024-01-21T03:02:08.908Z,9.70
2024-01-21T03:04:57.623Z,10.00
2024-01-21T03:07:46.260Z,10.20
2024-01-21T03:10:34.778Z,9.60
2024-01-21T03:13:23.282Z,9.80
2024-01-21T03:16:15.738Z,10.60
2024-01-21T03:19:04.313Z,9.80
2024-01-21T03:21:52.856Z,10.70
2024-01-21T03:24:41.472Z,11.20
2024-01-21T03:27:30.160Z,9.40
2024-01-21T03:30:18.769Z,9.70
2024-01-21T03:33:07.427Z,9.20
2024-01-21T03:35:56.035Z,8.80
2024-01-21T03:38:46.701Z,9.30
2024-01-21T03:41:35.366Z,9.40
2024-01-21T03:44:24.017Z,10.20
2024-01-21T03:47:12.893Z,11.90
2024-01-21T03:50:02.191Z,9.50
2024-01-21T03:52:50.749Z,10.00
2024-01-21T03:55:39.261Z,9.20
2024-01-21T03:58:27.754Z,8.80
2024-01-21T04:01:16.481Z,9.30
2024-01-21T04:04:05.390Z,9.70
2024-01-21T04:06:54.048Z,9.50
2024-01-21T04:09:42.757Z,8.70
2024-01-21T04:12:31.274Z,10.00
2024-01-21T04:15:19.819Z,10.60
2024-01-21T04:18:08.422Z,8.30
2024-01-21T04:20:56.987Z,10.00
2024-01-21T04:23:45.512Z,8.90
2024-01-21T04:26:34.116Z,9.70
2024-01-21T04:29:22.813Z,8.60
2024-01-21T04:32:11.367Z,7.50
2024-01-21T04:34:59.915Z,8.60
2024-01-21T04:37:49.922Z,7.40
2024-01-21T04:40:39.442Z,8.90
2024-01-21T04:43:28.039Z,8.70
2024-01-21T04:46:16.624Z,9.00
2024-01-21T04:49:05.235Z,8.10
2024-01-21T04:51:54.283Z,8.50
2024-01-21T04:54:42.976Z,9.10
2024-01-21T04:57:31.611Z,9.00
2024-01-21T05:00:20.412Z,12.90
2024-01-21T05:03:10.121Z,9.70
2024-01-21T05:05:58.720Z,8.80
2024-01-21T05:08:47.549Z,9.70
2024-01-21T05:11:36.251Z,8.90
2024-01-21T05:14:24.798Z,9.70
2024-01-21T05:17:13.301Z,8.80
2024-01-21T05:20:01.851Z,8.80
2024-01-21T05:22:51.683Z,9.20
2024-01-21T05:25:40.276Z,9.40
2024-01-21T05:28:28.975Z,9.00
2024-01-21T05:31:17.470Z,8.20
2024-01-21T05:34:06.236Z,9.10
2024-01-21T05:36:55.216Z,9.40
2024-01-21T05:39:43.846Z,10.60
2024-01-21T05:42:32.426Z,10.90
2024-01-21T05:45:21.430Z,10.80
2024-01-21T05:48:10.326Z,10.20
2024-01-21T05:50:58.841Z,10.90
2024-01-21T05:53:47.473Z,10.90
2024-01-21T05:56:37.493Z,10.70
2024-01-21T05:59:26.078Z,10.50
2024-01-21T06:02:14.881Z,10.50
2024-01-21T06:05:04.114Z,10.70
2024-01-21T06:07:52.703Z,11.60
2024-01-21T06:10:41.197Z,11.20
2024-01-21T06:13:29.764Z,9.60
2024-01-21T06:16:19.009Z,11.70
2024-01-21T06:19:07.736Z,10.30
2024-01-21T06:21:56.328Z,10.80
2024-01-21T06:24:44.870Z,10.00
2024-01-21T06:27:33.501Z,10.40
2024-01-21T06:30:23.976Z,11.60
2024-01-21T06:33:12.702Z,11.00
2024-01-21T06:36:01.533Z,10.20
2024-01-21T06:38:50.407Z,9.30
2024-01-21T06:41:39.172Z,10.00
2024-01-21T06:44:27.831Z,9.60
2024-01-21T06:47:16.337Z,9.90
2024-01-21T06:50:06.123Z,10.40
2024-01-21T06:52:54.639Z,11.20
2024-01-21T06:55:46.567Z,10.10
2024-01-21T06:58:35.645Z,11.10
2024-01-21T07:01:24.590Z,10.00
2024-01-21T07:04:14.352Z,9.40
2024-01-21T07:07:03.204Z,10.00
2024-01-21T07:09:51.732Z,8.90
2024-01-21T07:12:40.299Z,10.60
2024-01-21T07:15:28.869Z,12.40
2024-01-21T07:18:18.094Z,11.60
2024-01-21T07:21:06.748Z,10.30
2024-01-21T07:23:55.372Z,9.40
2024-01-21T07:26:43.881Z,10.90
2024-01-21T07:29:32.423Z,10.00
2024-01-21T07:32:20.923Z,10.40
2024-01-21T07:35:12.508Z,8.90
2024-01-21T07:38:01.121Z,9.60
2024-01-21T07:40:49.729Z,10.60
2024-01-21T07:43:38.295Z,10.90
2024-01-21T07:46:26.915Z,10.30
2024-01-21T07:49:15.532Z,9.90
2024-01-21T07:52:04.292Z,10.70
2024-01-21T07:54:53.049Z,10.20
2024-01-21T07:57:41.860Z,10.20
2024-01-21T08:00:30.721Z,7.90
2024-01-21T08:03:19.447Z,9.70
2024-01-21T08:06:11.197Z,9.70
2024-01-21T08:09:00.026Z,8.10
2024-01-21T08:11:48.618Z,9.40
2024-01-21T08:14:37.200Z,9.70
2024-01-21T08:17:25.770Z,9.10
2024-01-21T08:20:14.566Z,9.10
2024-01-21T08:23:03.211Z,8.40
2024-01-21T08:25:51.741Z,9.80
2024-01-21T08:28:40.270Z,10.20
2024-01-21T08:31:28.851Z,9.20
2024-01-21T08:34:17.673Z,10.40
2024-01-21T08:37:06.614Z,9.00
2024-01-21T08:39:55.293Z,9.80
2024-01-21T08:42:44.052Z,9.30
2024-01-21T08:45:33.452Z,9.30
2024-01-21T08:48:22.069Z,9.90
2024-01-21T08:51:13.737Z,10.80
2024-01-21T08:54:02.376Z,10.90
2024-01-21T08:56:50.944Z,10.10
2024-01-21T08:59:39.776Z,10.40
2024-01-21T09:02:28.457Z,9.70
2024-01-21T09:05:17.130Z,10.10
2024-01-21T09:08:05.867Z,9.80
2024-01-21T09:10:54.618Z,9.20
2024-01-21T09:13:44.213Z,9.10
2024-01-21T09:16:33.929Z,9.30
2024-01-21T09:19:22.781Z,9.30
2024-01-21T09:22:14.118Z,10.50
2024-01-21T09:25:03.721Z,10.50
2024-01-21T09:27:52.733Z,9.60
2024-01-21T09:30:42.490Z,9.80
2024-01-21T09:33:31.258Z,10.20
2024-01-21T09:36:20.713Z,10.40
2024-01-21T09:39:10.415Z,11.40
2024-01-21T09:42:00.280Z,8.60
2024-01-21T09:44:48.981Z,10.30
2024-01-21T09:47:39.194Z,11.30
2024-01-21T09:50:29.152Z,10.80
2024-01-21T09:53:18.639Z,10.50
2024-01-21T09:56:08.878Z,10.70
2024-01-21T09:58:58.763Z,11.40
2024-01-21T10:01:48.250Z,10.70
2024-01-21T10:04:36.905Z,10.50
2024-01-21T10:07:25.683Z,9.70
2024-01-21T10:10:14.350Z,11.80
2024-01-21T10:13:04.756Z,11.30
2024-01-21T10:15:53.988Z,11.80
2024-01-21T10:18:49.307Z,10.70
2024-01-21T10:21:38.100Z,10.90
2024-01-21T10:24:26.622Z,9.80
2024-01-21T10:27:17.071Z,10.60
2024-01-21T10:30:09.433Z,10.70
2024-01-21T10:33:00.976Z,10.10
2024-01-21T10:35:49.776Z,11.30
2024-01-21T10:38:50.335Z,10.50
2024-01-21T10:41:41.215Z,10.80
2024-01-21T10:44:29.867Z,10.60
2024-01-21T10:47:19.195Z,10.40
2024-01-21T10:50:08.579Z,10.90
2024-01-21T10:52:58.027Z,10.90
2024-01-21T10:55:47.142Z,12.00
2024-01-21T10:58:36.112Z,11.10
2024-01-21T11:01:25.894Z,10.70
2024-01-21T11:04:14.722Z,11.10
2024-01-21T11:07:05.266Z,12.60
2024-01-21T11:09:58.358Z,12.00
2024-01-21T11:12:47.097Z,11.90
2024-01-21T11:15:35.974Z,12.80
2024-01-21T11:18:24.600Z,11.80
2024-01-21T11:21:14.131Z,10.80
2024-01-21T11:24:09.151Z,11.10
2024-01-21T11:26:59.616Z,12.20
2024-01-21T11:30:11.637Z,12.80
2024-01-21T11:33:02.830Z,12.80
2024-01-21T11:38:40.269Z,12.30
2024-01-21T11:41:40.270Z,13.40
2024-01-21T11:44:30.905Z,12.50
2024-01-21T11:47:20.570Z,14.90
2024-01-21T11:50:10.645Z,12.90
2024-01-21T11:53:02.259Z,12.30
2024-01-21T11:55:52.180Z,14.30
2024-01-21T11:58:40.781Z,14.00
2024-01-21T12:01:31.905Z,12.90
2024-01-21T12:04:20.722Z,15.40
2024-01-21T12:07:10.894Z,13.40
2024-01-21T12:09:59.813Z,13.50
2024-01-21T12:12:48.411Z,14.70
2024-01-21T12:15:37.470Z,14.70
2024-01-21T12:18:26.466Z,14.20
2024-01-21T12:21:15.657Z,13.10
2024-01-21T12:24:04.608Z,15.70
2024-01-21T12:26:56.819Z,13.00
2024-01-21T12:29:46.374Z,14.80
2024-01-21T12:32:39.355Z,14.70
2024-01-21T12:35:30.681Z,15.80
2024-01-21T12:38:20.090Z,13.90
2024-01-21T12:41:08.634Z,15.60
2024-01-21T12:43:57.180Z,14.00
2024-01-21T12:46:46.704Z,13.60
2024-01-21T12:49:35.498Z,14.40
2024-01-21T12:52:24.036Z,14.60
2024-01-21T12:55:12.645Z,14.30
2024-01-21T12:58:01.166Z,15.20
2024-01-21T13:00:49.816Z,14.10
2024-01-21T13:03:39.207Z,14.10
2024-01-21T13:06:28.051Z,14.40
2024-01-21T13:09:17.759Z,14.40
2024-01-21T13:12:06.578Z,14.20
2024-01-21T13:14:56.889Z,13.20
2024-01-21T13:17:45.775Z,14.20
2024-01-21T13:20:34.438Z,15.50
2024-01-21T13:23:23.370Z,13.20
2024-01-21T13:26:15.687Z,14.10
2024-01-21T13:29:10.203Z,14.70
2024-01-21T13:31:58.757Z,14.10
2024-01-21T13:34:48.127Z,15.50
2024-01-21T13:37:38.140Z,15.00
2024-01-21T13:40:27.835Z,14.80
2024-01-21T13:43:16.429Z,14.40
2024-01-21T13:46:05.117Z,15.50
2024-01-21T13:48:55.201Z,13.70
2024-01-21T13:51:43.827Z,15.40
2024-01-21T13:54:33.173Z,14.30
2024-01-21T13:57:22.115Z,14.40
2024-01-21T14:00:11.407Z,14.30
2024-01-21T14:03:00.839Z,14.20
2024-01-21T14:05:49.691Z,12.50
2024-01-21T14:08:38.312Z,13.60
2024-01-21T14:11:26.917Z,14.00
2024-01-21T14:14:15.472Z,13.80
2024-01-21T14:17:04.713Z,14.60
2024-01-21T14:19:54.180Z,15.40
2024-01-21T14:22:44.085Z,17.80
2024-01-21T14:25:37.623Z,16.90
2024-01-21T14:28:28.144Z,17.40
2024-01-21T14:31:16.782Z,18.60
2024-01-21T14:34:05.801Z,18.30
2024-01-21T14:36:54.480Z,18.10
2024-01-21T14:39:43.394Z,19.60
2024-01-21T14:42:32.038Z,17.20
2024-01-21T14:45:21.844Z,17.30
2024-01-21T14:48:11.088Z,19.30
2024-01-21T14:50:59.930Z,18.40
2024-01-21T14:53:48.525Z,19.10
2024-01-21T14:56:37.153Z,18.90
2024-01-21T14:59:26.930Z,18.60
2024-01-21T15:02:15.875Z,18.70
2024-01-21T15:05:04.741Z,17.20
2024-01-21T15:07:53.761Z,17.20
2024-01-21T15:10:43.757Z,19.30
2024-01-21T15:13:35.087Z,16.40
2024-01-21T15:19:12.438Z,16.60
2024-01-21T15:22:01.530Z,15.40
2024-01-21T15:24:50.173Z,18.40
2024-01-21T15:27:38.785Z,19.80
2024-01-21T15:30:27.827Z,18.20
2024-01-21T15:33:16.539Z,19.00
2024-01-21T15:36:05.761Z,19.30
2024-01-21T15:38:54.465Z,18.10
2024-01-21T15:41:43.208Z,18.90
2024-01-21T15:44:31.831Z,18.30
2024-01-21T15:47:20.383Z,18.70
2024-01-21T15:50:09.794Z,19.00
2024-01-21T15:52:58.406Z,18.40
2024-01-21T15:55:46.916Z,20.40
2024-01-21T15:58:35.422Z,18.10
2024-01-21T16:01:24.149Z,19.20
2024-01-21T16:04:13.023Z,18.60
2024-01-21T16:07:02.214Z,17.20
2024-01-21T16:09:51.435Z,17.60
2024-01-21T16:12:40.171Z,17.30
2024-01-21T16:15:40.101Z,18.70
2024-01-21T16:18:36.402Z,18.50
2024-01-21T16:21:25.337Z,18.20
2024-01-21T16:24:17.206Z,19.20
2024-01-21T16:27:05.842Z,18.70
2024-01-21T16:29:54.354Z,20.10
2024-01-21T16:32:42.983Z,19.00
2024-01-21T16:35:31.525Z,19.50
2024-01-21T16:38:20.761Z,16.90
2024-01-21T16:41:09.367Z,19.40
2024-01-21T16:44:02.527Z,17.10
2024-01-21T16:46:52.276Z,17.90
2024-01-21T16:49:43.404Z,16.70
2024-01-21T16:52:33.929Z,16.20
2024-01-21T16:55:22.491Z,14.70
2024-01-21T16:58:10.988Z,15.30
2024-01-21T17:01:02.298Z,13.40
2024-01-21T17:03:51.411Z,15.70
2024-01-21T17:06:40.480Z,16.10
2024-01-21T17:09:28.987Z,15.10
2024-01-21T17:12:34.064Z,14.90
2024-01-21T17:15:22.601Z,16.20
2024-01-21T17:18:31.090Z,14.20
2024-01-21T17:21:20.446Z,18.20
2024-01-21T17:24:11.360Z,16.80
2024-01-21T17:26:59.916Z,17.60
2024-01-21T17:29:48.520Z,18.80
2024-01-21T17:32:37.600Z,15.10
2024-01-21T17:35:29.339Z,16.60
2024-01-21T17:38:18.187Z,17.00
2024-01-21T17:41:07.132Z,18.00
2024-01-21T17:43:55.709Z,16.30
2024-01-21T17:46:44.583Z,16.40
2024-01-21T17:49:34.257Z,17.00
2024-01-21T17:52:22.904Z,17.00
2024-01-21T17:55:11.486Z,15.80
2024-01-21T17:58:01.616Z,17.40
2024-01-21T18:00:50.507Z,15.80
2024-01-21T18:03:40.447Z,16.40
2024-01-21T18:06:29.399Z,15.50
2024-01-21T18:09:18.018Z,15.70
2024-01-21T18:12:10.275Z,16.00
2024-01-21T18:14:59.211Z,16.80
2024-01-21T18:17:47.790Z,14.10
2024-01-21T18:20:37.933Z,17.50
2024-01-21T18:23:26.614Z,17.00
2024-01-21T18:26:15.135Z,17.10
2024-01-21T18:29:15.558Z,15.90
2024-01-21T18:32:14.506Z,14.20
2024-01-21T18:35:05.610Z,16.10
2024-01-21T18:40:42.814Z,15.10
2024-01-21T18:43:33.060Z,14.90
2024-01-21T18:46:21.670Z,15.60
2024-01-21T18:49:10.388Z,16.30
2024-01-21T18:52:05.885Z,15.40
2024-01-21T18:54:57.620Z,15.10
2024-01-21T18:57:46.144Z,17.00
2024-01-21T19:00:37.342Z,15.00
2024-01-21T19:03:28.159Z,14.40
2024-01-21T19:06:21.556Z,16.70
2024-01-21T19:09:10.813Z,15.70
2024-01-21T19:11:59.386Z,15.30
2024-01-21T19:14:48.804Z,14.40
2024-01-21T19:17:37.606Z,15.90
2024-01-21T19:20:26.181Z,16.00
2024-01-21T19:23:15.472Z,14.80
2024-01-21T19:26:06.358Z,16.50
2024-01-21T19:28:55.566Z,15.80
2024-01-21T19:31:44.132Z,17.30
2024-01-21T19:34:33.324Z,17.10
2024-01-21T19:37:21.910Z,16.20
2024-01-21T19:40:11.159Z,15.80
2024-01-21T19:42:59.673Z,17.60
2024-01-21T19:45:48.201Z,17.30
2024-01-21T19:48:38.979Z,16.90
2024-01-21T19:54:18.397Z,17.30
2024-01-21T19:57:07.803Z,18.60
2024-01-21T19:59:56.377Z,18.70
2024-01-21T20:02:45.076Z,17.90
2024-01-21T20:05:34.011Z,18.50
2024-01-21T20:08:22.560Z,19.00
2024-01-21T20:11:11.209Z,17.90
2024-01-21T20:14:01.570Z,18.10
2024-01-21T20:16:50.143Z,17.20
2024-01-21T20:19:38.823Z,17.60
2024-01-21T20:22:27.504Z,18.30
2024-01-21T20:25:16.370Z,16.60
2024-01-21T20:28:05.271Z,16.60
2024-01-21T20:30:53.777Z,18.20
2024-01-21T20:33:42.891Z,17.80
2024-01-21T20:36:32.917Z,16.40
2024-01-21T20:39:22.696Z,16.20
2024-01-21T20:42:14.876Z,16.00
2024-01-21T20:45:04.242Z,14.70
2024-01-21T20:47:52.861Z,14.10
2024-01-21T20:50:41.494Z,14.90
2024-01-21T20:53:30.126Z,14.50
2024-01-21T20:56:21.282Z,13.60
2024-01-21T21:01:58.290Z,12.30
2024-01-21T21:04:49.489Z,13.30
2024-01-21T21:10:27.430Z,12.70
2024-01-21T21:13:17.670Z,11.90
2024-01-21T21:16:06.408Z,11.60
2024-01-21T21:18:55.431Z,11.10
2024-01-21T21:21:45.392Z,9.10
2024-01-21T21:24:33.941Z,9.10
2024-01-21T21:27:22.482Z,9.20
2024-01-21T21:30:11.762Z,9.30
2024-01-21T21:33:03.342Z,8.20
2024-01-21T21:35:51.963Z,7.80
2024-01-21T21:38:40.588Z,7.00
2024-01-21T21:41:31.723Z,6.70
2024-01-21T21:44:20.656Z,6.00
2024-01-21T21:47:10.333Z,4.80
2024-01-21T21:49:59.687Z,5.30
2024-01-21T21:52:48.473Z,5.40
2024-01-21T21:55:37.262Z,5.70
2024-01-21T21:58:25.891Z,5.50
2024-01-21T22:01:19.371Z,5.00
2024-01-21T22:04:07.940Z,4.60
2024-01-21T22:06:56.799Z,4.70
2024-01-21T22:09:46.052Z,4.90
2024-01-21T22:12:34.800Z,5.70
2024-01-21T22:15:23.426Z,5.10
2024-01-21T22:18:12.385Z,5.00
2024-01-21T22:21:03.329Z,4.90
2024-01-21T22:23:52.397Z,4.10
2024-01-21T22:26:43.951Z,5.00
2024-01-21T22:29:32.663Z,4.80
2024-01-21T22:32:21.175Z,5.20
2024-01-21T22:35:09.908Z,4.80
2024-01-21T22:37:58.449Z,4.30
2024-01-21T22:40:46.932Z,5.10
2024-01-21T22:43:35.451Z,4.30
2024-01-21T22:46:23.972Z,4.70
2024-01-21T22:49:12.678Z,4.70
2024-01-21T22:52:01.473Z,4.80
2024-01-21T22:54:50.347Z,5.60
2024-01-21T22:57:38.878Z,4.80
2024-01-21T23:00:27.862Z,4.50
2024-01-21T23:03:17.697Z,4.40
2024-01-21T23:06:06.437Z,4.70
2024-01-21T23:08:54.939Z,4.80
2024-01-21T23:11:43.502Z,4.40
2024-01-21T23:14:32.169Z,4.70
2024-01-21T23:17:20.673Z,4.00
2024-01-21T23:20:09.381Z,4.20
2024-01-21T23:22:58.010Z,4.50
2024-01-21T23:25:46.633Z,4.60
2024-01-21T23:28:35.135Z,4.60
2024-01-21T23:31:23.694Z,4.30
2024-01-21T23:34:12.650Z,4.90
2024-01-21T23:37:01.523Z,4.40
2024-01-21T23:39:50.035Z,4.00
2024-01-21T23:42:40.068Z,5.20
2024-01-21T23:45:28.550Z,4.70
2024-01-21T23:48:18.093Z,4.60
2024-01-21T23:51:06.792Z,4.70
2024-01-21T23:53:55.421Z,4.90
2024-01-21T23:56:50.739Z,4.80
2024-01-21T23:59:39.681Z,4.90
